Time;durP1;ratioP1;P1;durP2;ratioP2;P2;SDS_P1;SDS_P2;PMS_P1;PMS_P2;Temp;Humidity;BMP_temperature;BMP_pressure;BME280_temperature;BME280_humidity;BME280_pressure;Samples;Min_cycle;Max_cycle;Signal;HPM_P1;HPM_P2
2024/02/17 00:01:31;;;;;;;0.30;0.30;;;5.10;99.90;;;;;;5086348;28;20671;-75
2024/02/17 00:03:58;;;;;;;0.30;0.20;;;5.10;99.90;;;;;;5084577;28;20200;-75
2024/02/17 00:06:23;;;;;;;0.30;0.20;;;5.10;99.90;;;;;;5084837;28;20184;-77
2024/02/17 00:08:49;;;;;;;0.30;0.20;;;5.00;99.90;;;;;;5084992;28;20581;-77
2024/02/17 00:11:15;;;;;;;0.30;0.20;;;5.00;99.90;;;;;;5085485;28;20227;-75
2024/02/17 00:13:43;;;;;;;0.30;0.20;;;4.90;99.90;;;;;;5085895;28;20429;-75
2024/02/17 00:16:08;;;;;;;0.30;0.20;;;4.90;99.90;;;;;;5085649;28;20196;-75
2024/02/17 00:18:34;;;;;;;0.30;0.20;;;4.90;99.90;;;;;;5084461;28;20634;-76
2024/02/17 00:21:03;;;;;;;0.30;0.30;;;4.80;99.90;;;;;;5099904;28;20278;-77
2024/02/17 00:23:29;;;;;;;0.30;0.30;;;4.80;99.90;;;;;;5121551;27;20654;-77
2024/02/17 00:25:55;;;;;;;0.88;0.85;;;4.80;99.90;;;;;;5105976;28;20167;-76
2024/02/17 00:28:25;;;;;;;0.30;0.30;;;4.80;99.90;;;;;;5105906;28;20482;-77
2024/02/17 00:30:52;;;;;;;0.30;0.20;;;4.80;99.90;;;;;;5106007;28;20175;-75
2024/02/17 00:33:17;;;;;;;0.30;0.20;;;4.80;99.90;;;;;;5105817;28;20199;-76
2024/02/17 00:35:43;;;;;;;0.30;0.20;;;4.70;99.90;;;;;;5106167;28;20204;-77
2024/02/17 00:38:09;;;;;;;0.30;0.30;;;4.70;99.90;;;;;;5105688;28;20203;-75
2024/02/17 00:40:35;;;;;;;0.30;0.20;;;4.70;99.90;;;;;;5105925;28;20171;-77
2024/02/17 00:43:01;;;;;;;0.30;0.27;;;4.70;99.90;;;;;;5105152;28;20664;-75
2024/02/17 00:45:26;;;;;;;0.30;0.20;;;4.70;99.90;;;;;;5105587;28;20407;-75
2024/02/17 00:47:52;;;;;;;0.30;0.20;;;4.70;99.90;;;;;;5105419;28;20476;-77
2024/02/17 00:50:18;;;;;;;0.30;0.20;;;4.70;99.90;;;;;;5121459;28;20171;-75
2024/02/17 00:52:43;;;;;;;0.30;0.30;;;4.60;99.90;;;;;;5105530;28;20256;-75
2024/02/17 00:55:10;;;;;;;0.30;0.20;;;4.60;99.90;;;;;;5121380;28;20197;-76
2024/02/17 00:57:36;;;;;;;0.30;0.30;;;4.60;99.90;;;;;;5105743;28;20207;-77
2024/02/17 01:00:04;;;;;;;0.30;0.20;;;4.50;99.90;;;;;;5105603;28;20194;-75
2024/02/17 01:02:32;;;;;;;0.30;0.30;;;4.40;99.90;;;;;;5105748;28;20160;-78
2024/02/17 01:04:59;;;;;;;0.30;0.20;;;4.40;99.90;;;;;;5105344;28;20417;-75
2024/02/17 01:07:25;;;;;;;0.30;0.20;;;4.30;99.90;;;;;;5105560;28;20625;-75
2024/02/17 01:09:53;;;;;;;0.30;0.20;;;4.40;99.90;;;;;;5104930;28;20194;-75
2024/02/17 01:12:19;;;;;;;0.30;0.20;;;4.30;99.90;;;;;;5120768;28;20234;-75
2024/02/17 01:14:44;;;;;;;0.30;0.23;;;4.30;99.90;;;;;;5121195;28;20203;-75
2024/02/17 01:17:10;;;;;;;0.30;0.20;;;4.20;99.90;;;;;;5105316;28;20557;-76
2024/02/17 01:19:36;;;;;;;0.30;0.20;;;4.20;99.90;;;;;;5121066;28;20312;-77
2024/02/17 01:22:01;;;;;;;0.30;0.30;;;4.10;99.90;;;;;;5105589;28;20532;-77
2024/02/17 01:24:27;;;;;;;0.30;0.20;;;4.10;99.90;;;;;;5120950;27;20196;-75
2024/02/17 01:26:53;;;;;;;0.30;0.30;;;4.10;99.90;;;;;;5109773;28;20512;-76
2024/02/17 01:29:18;;;;;;;0.30;0.30;;;4.10;99.90;;;;;;5109433;28;20766;-76
2024/02/17 01:31:45;;;;;;;0.30;0.20;;;4.10;99.90;;;;;;5109564;28;20386;-75
2024/02/17 01:34:10;;;;;;;0.30;0.20;;;4.10;99.90;;;;;;5109355;28;20443;-75
2024/02/17 01:36:36;;;;;;;0.30;0.30;;;4.10;99.90;;;;;;5109255;28;20702;-76
2024/02/17 01:39:02;;;;;;;0.30;0.30;;;4.10;99.90;;;;;;5109154;28;20679;-75
2024/02/17 01:41:28;;;;;;;0.30;0.30;;;4.10;99.90;;;;;;5108986;28;20229;-75
2024/02/17 01:43:54;;;;;;;0.30;0.30;;;4.10;99.90;;;;;;5124626;27;20500;-77
2024/02/17 01:46:20;;;;;;;0.30;0.20;;;4.10;99.90;;;;;;5124462;27;20414;-77
2024/02/17 01:48:46;;;;;;;0.30;0.20;;;4.10;99.90;;;;;;5124887;27;20200;-77
2024/02/17 01:51:13;;;;;;;0.30;0.30;;;4.00;99.90;;;;;;5109130;28;20180;-78
2024/02/17 01:53:41;;;;;;;0.30;0.20;;;4.00;99.90;;;;;;5124105;27;20634;-76
2024/02/17 01:56:09;;;;;;;0.30;0.28;;;4.00;99.90;;;;;;5124590;27;20207;-77
2024/02/17 01:58:36;;;;;;;0.30;0.30;;;4.00;99.90;;;;;;5124272;27;20734;-77
2024/02/17 02:01:02;;;;;;;0.30;0.30;;;4.00;99.90;;;;;;5108671;28;20268;-75
2024/02/17 02:03:28;;;;;;;0.30;0.30;;;3.90;99.90;;;;;;5124424;27;20704;-76
2024/02/17 02:05:56;;;;;;;0.30;0.20;;;3.90;99.90;;;;;;5124344;27;20222;-75
2024/02/17 02:08:21;;;;;;;0.30;0.20;;;3.80;99.90;;;;;;5123850;27;20222;-75
2024/02/17 02:10:47;;;;;;;0.30;0.20;;;3.80;99.90;;;;;;5108037;28;20219;-77
2024/02/17 02:13:13;;;;;;;0.30;0.30;;;3.80;99.90;;;;;;5123632;27;20473;-76
2024/02/17 02:15:43;;;;;;;0.30;0.20;;;3.80;99.90;;;;;;5124367;27;20441;-76
2024/02/17 02:18:09;;;;;;;0.30;0.20;;;3.80;99.90;;;;;;5124025;27;20244;-75
2024/02/17 02:20:37;;;;;;;0.30;0.20;;;3.70;99.90;;;;;;5108491;27;20183;-75
2024/02/17 02:23:03;;;;;;;0.30;0.20;;;3.70;99.90;;;;;;5123731;27;20290;-75
2024/02/17 02:25:29;;;;;;;0.30;0.20;;;3.70;99.90;;;;;;5108523;28;20551;-75
2024/02/17 02:27:56;;;;;;;0.30;0.20;;;3.60;99.90;;;;;;5108053;28;20195;-77
2024/02/17 02:30:22;;;;;;;0.30;0.20;;;3.60;99.90;;;;;;5108274;28;20404;-77
2024/02/17 02:32:48;;;;;;;0.30;0.20;;;3.50;99.90;;;;;;5107882;28;20253;-77
2024/02/17 02:35:14;;;;;;;0.30;0.20;;;3.50;99.90;;;;;;5108166;28;20246;-77
2024/02/17 02:37:40;;;;;;;0.30;0.30;;;3.40;99.90;;;;;;5106275;28;20341;-77
2024/02/17 02:40:06;;;;;;;0.30;0.20;;;3.40;99.90;;;;;;5123792;27;20178;-75
2024/02/17 02:42:32;;;;;;;0.30;0.30;;;3.40;99.90;;;;;;5123366;27;20924;-75
2024/02/17 02:44:58;;;;;;;0.30;0.30;;;3.30;99.90;;;;;;5123175;27;20164;-77
2024/02/17 02:47:24;;;;;;;0.30;0.30;;;3.30;99.90;;;;;;5123408;27;20657;-75
2024/02/17 02:49:50;;;;;;;0.30;0.30;;;3.30;99.90;;;;;;5107802;28;20176;-75
2024/02/17 02:52:15;;;;;;;0.30;0.20;;;3.20;99.90;;;;;;5107451;28;20375;-77
2024/02/17 02:54:41;;;;;;;0.30;0.20;;;3.20;99.90;;;;;;5107475;28;20405;-75
2024/02/17 02:57:07;;;;;;;0.30;0.30;;;3.20;99.90;;;;;;5107843;28;20498;-75
2024/02/17 02:59:33;;;;;;;0.30;0.30;;;3.20;99.90;;;;;;5123219;27;20306;-77
2024/02/17 03:02:00;;;;;;;0.30;0.30;;;3.20;99.90;;;;;;5107668;28;20648;-77
2024/02/17 03:04:25;;;;;;;0.30;0.20;;;3.30;99.90;;;;;;5107480;28;20206;-77
2024/02/17 03:06:51;;;;;;;0.30;0.30;;;3.30;99.90;;;;;;5123128;27;20267;-78
2024/02/17 03:09:17;;;;;;;0.30;0.20;;;3.30;99.90;;;;;;5106737;28;20586;-75
2024/02/17 03:11:47;;;;;;;0.30;0.20;;;3.30;99.90;;;;;;5107319;28;20703;-78
2024/02/17 03:14:14;;;;;;;0.30;0.30;;;3.30;99.90;;;;;;5106787;28;20645;-75
2024/02/17 03:16:39;;;;;;;0.30;0.30;;;3.30;99.90;;;;;;5107338;28;20204;-75
2024/02/17 03:19:06;;;;;;;0.30;0.30;;;3.30;99.90;;;;;;5122972;27;20677;-75
2024/02/17 03:21:31;;;;;;;0.30;0.30;;;3.30;99.90;;;;;;5122811;27;20214;-78
2024/02/17 03:23:57;;;;;;;0.30;0.30;;;3.30;99.90;;;;;;5106763;28;20220;-75
2024/02/17 03:26:23;;;;;;;0.30;0.30;;;3.30;99.90;;;;;;5107096;28;20379;-75
2024/02/17 03:28:49;;;;;;;0.30;0.20;;;3.20;99.90;;;;;;5122441;27;20210;-77
2024/02/17 03:31:14;;;;;;;0.30;0.30;;;3.20;99.90;;;;;;5107582;28;20486;-76
2024/02/17 03:33:40;;;;;;;0.30;0.30;;;3.20;99.90;;;;;;5106683;28;20211;-78
2024/02/17 03:36:06;;;;;;;0.30;0.30;;;3.10;99.90;;;;;;5106887;28;20221;-77
2024/02/17 03:38:32;;;;;;;0.30;0.30;;;3.10;99.90;;;;;;5122310;27;20652;-77
2024/02/17 03:40:57;;;;;;;0.30;0.30;;;3.00;99.90;;;;;;5122514;27;20493;-75
2024/02/17 03:43:23;;;;;;;0.30;0.30;;;3.00;99.90;;;;;;5106588;28;20671;-75
2024/02/17 03:45:49;;;;;;;0.30;0.30;;;3.00;99.90;;;;;;5106591;28;20179;-76
2024/02/17 03:48:15;;;;;;;0.30;0.30;;;3.00;99.90;;;;;;5106051;28;20661;-77
2024/02/17 03:50:41;;;;;;;0.30;0.20;;;3.00;99.90;;;;;;5122533;27;20571;-75
2024/02/17 03:53:06;;;;;;;0.30;0.30;;;3.00;99.90;;;;;;5122057;27;20207;-75
2024/02/17 03:55:32;;;;;;;0.30;0.30;;;3.00;99.90;;;;;;5106455;28;20203;-77
2024/02/17 03:57:58;;;;;;;0.30;0.30;;;3.00;99.90;;;;;;5106417;28;20539;-76
2024/02/17 04:00:24;;;;;;;0.30;0.30;;;3.00;99.90;;;;;;5106879;28;20536;-76
2024/02/17 04:02:50;;;;;;;0.30;0.30;;;3.00;99.90;;;;;;5105914;28;20196;-78
2024/02/17 04:05:16;;;;;;;0.30;0.30;;;3.00;99.90;;;;;;5106405;28;20366;-78
2024/02/17 04:07:42;;;;;;;0.30;0.30;;;3.00;99.90;;;;;;5105854;28;20187;-76
2024/02/17 04:10:08;;;;;;;0.30;0.30;;;2.90;99.90;;;;;;5106448;28;20195;-76
2024/02/17 04:12:39;;;;;;;0.30;0.30;;;2.90;99.90;;;;;;5105755;28;20577;-78
2024/02/17 04:15:05;;;;;;;0.30;0.30;;;2.90;99.90;;;;;;5106444;28;20168;-76
2024/02/17 04:17:31;;;;;;;0.30;0.30;;;2.90;99.90;;;;;;5105142;28;20207;-76
2024/02/17 04:19:57;;;;;;;0.30;0.30;;;2.90;99.90;;;;;;5105637;28;20659;-77
2024/02/17 04:22:24;;;;;;;0.30;0.30;;;2.90;99.90;;;;;;5121953;27;20167;-78
2024/02/17 04:24:50;;;;;;;0.30;0.30;;;2.90;99.90;;;;;;5105851;28;20955;-76
2024/02/17 04:27:15;;;;;;;0.30;0.30;;;2.80;99.90;;;;;;5106064;28;20203;-78
2024/02/17 04:29:41;;;;;;;0.30;0.30;;;2.70;99.90;;;;;;5106176;28;20180;-76
2024/02/17 04:32:08;;;;;;;0.30;0.30;;;2.70;99.90;;;;;;5121794;27;20440;-78
2024/02/17 04:34:34;;;;;;;0.30;0.30;;;2.70;99.90;;;;;;5105952;28;20557;-77
2024/02/17 04:37:01;;;;;;;0.30;0.30;;;2.70;99.90;;;;;;5105807;28;20282;-78
2024/02/17 04:39:27;;;;;;;0.30;0.30;;;2.70;99.90;;;;;;5106046;28;20196;-76
2024/02/17 04:41:54;;;;;;;0.30;0.20;;;2.60;99.90;;;;;;5106209;28;20213;-76
2024/02/17 04:44:20;;;;;;;0.30;0.30;;;2.60;99.90;;;;;;5105382;28;20188;-75
2024/02/17 04:46:46;;;;;;;0.30;0.20;;;2.60;99.90;;;;;;5105437;28;20194;-76
2024/02/17 04:49:12;;;;;;;0.30;0.30;;;2.70;99.90;;;;;;5105243;28;20203;-79
2024/02/17 04:51:38;;;;;;;0.30;0.30;;;2.70;99.90;;;;;;5105774;28;20197;-75
2024/02/17 04:54:04;;;;;;;0.30;0.20;;;2.70;99.90;;;;;;5105746;28;20321;-79
2024/02/17 04:56:29;;;;;;;0.30;0.30;;;2.70;99.90;;;;;;5121708;28;20207;-75
2024/02/17 04:58:55;;;;;;;0.30;0.30;;;2.70;99.90;;;;;;5105819;28;20728;-77
2024/02/17 05:01:22;;;;;;;0.30;0.30;;;2.60;99.90;;;;;;5125025;27;20171;-77
2024/02/17 05:03:49;;;;;;;0.30;0.30;;;2.60;99.90;;;;;;5125598;27;20445;-75
2024/02/17 05:06:17;;;;;;;0.60;0.60;;;2.60;99.90;;;;;;5125445;27;20187;-76
2024/02/17 05:08:45;;;;;;;0.30;0.30;;;2.60;99.90;;;;;;5109697;28;20297;-74
2024/02/17 05:11:18;;;;;;;0.30;0.30;;;2.60;99.90;;;;;;5109016;28;20681;-77
2024/02/17 05:13:43;;;;;;;0.30;0.30;;;2.60;99.90;;;;;;5123374;28;20203;-75
2024/02/17 05:16:09;;;;;;;0.30;0.20;;;2.50;99.90;;;;;;5108218;28;20665;-74
2024/02/17 05:18:35;;;;;;;0.30;0.20;;;2.50;99.90;;;;;;5107245;28;20378;-77
2024/02/17 05:21:00;;;;;;;0.30;0.30;;;2.50;99.90;;;;;;5107801;28;20172;-75
2024/02/17 05:23:26;;;;;;;0.30;0.30;;;2.50;99.90;;;;;;5123788;28;20691;-75
2024/02/17 05:25:54;;;;;;;0.30;0.30;;;2.50;99.90;;;;;;5123869;28;20413;-75
2024/02/17 05:28:21;;;;;;;0.30;0.20;;;2.50;99.90;;;;;;5123605;28;20396;-75
2024/02/17 05:30:48;;;;;;;0.30;0.30;;;2.40;99.90;;;;;;5124059;28;20178;-75
2024/02/17 05:33:13;;;;;;;0.30;0.30;;;2.40;99.90;;;;;;5123691;28;20207;-75
2024/02/17 05:35:39;;;;;;;0.30;0.30;;;2.50;99.90;;;;;;5123436;28;20176;-77
2024/02/17 05:38:05;;;;;;;0.30;0.30;;;2.50;99.90;;;;;;5107552;28;20196;-75
2024/02/17 05:40:30;;;;;;;0.30;0.30;;;2.50;99.90;;;;;;5107595;28;20697;-77
2024/02/17 05:42:56;;;;;;;0.30;0.30;;;2.40;99.90;;;;;;5107596;28;20206;-77
2024/02/17 05:45:21;;;;;;;0.30;0.20;;;2.40;99.90;;;;;;5107809;28;20180;-75
2024/02/17 05:47:48;;;;;;;0.30;0.20;;;2.40;99.90;;;;;;5107331;28;20200;-74
2024/02/17 05:50:14;;;;;;;0.30;0.20;;;2.30;99.90;;;;;;5107508;28;20390;-77
2024/02/17 05:52:41;;;;;;;0.30;0.20;;;2.30;99.90;;;;;;5123170;28;20430;-77
2024/02/17 05:55:07;;;;;;;0.30;0.30;;;2.30;99.90;;;;;;5107845;28;20560;-77
2024/02/17 05:57:33;;;;;;;4.22;4.10;;;2.30;99.90;;;;;;5107693;28;20229;-74
2024/02/17 05:59:58;;;;;;;0.60;0.60;;;2.20;99.90;;;;;;5107136;28;20164;-79
2024/02/17 06:02:24;;;;;;;0.30;0.30;;;2.20;99.90;;;;;;5123288;28;20180;-77
2024/02/17 06:04:49;;;;;;;0.30;0.20;;;2.20;99.90;;;;;;5106923;28;20195;-75
2024/02/17 06:07:16;;;;;;;0.30;0.20;;;2.20;99.90;;;;;;5107344;28;20221;-74
2024/02/17 06:09:41;;;;;;;0.30;0.20;;;2.20;99.90;;;;;;5107553;28;20314;-74
2024/02/17 06:12:07;;;;;;;0.30;0.20;;;2.20;99.90;;;;;;5068630;28;1109198;-75
2024/02/17 06:14:33;;;;;;;0.30;0.30;;;2.20;99.90;;;;;;5108637;28;20512;-77
2024/02/17 06:17:04;;;;;;;0.30;0.30;;;2.20;99.90;;;;;;5124240;27;20289;-76
2024/02/17 06:22:14;;;;;;;0.30;0.20;;;2.30;99.90;;;;;;5108623;28;20190;-77
2024/02/17 06:24:40;;;;;;;0.30;0.20;;;2.40;99.90;;;;;;5108036;28;20167;-75
2024/02/17 06:27:06;;;;;;;0.30;0.30;;;2.40;99.90;;;;;;5108721;27;20425;-74
2024/02/17 06:29:31;;;;;;;0.30;0.20;;;2.50;99.90;;;;;;5108193;28;20459;-74
2024/02/17 06:31:57;;;;;;;0.30;0.20;;;2.50;99.90;;;;;;5108378;28;20172;-77
2024/02/17 06:34:23;;;;;;;0.30;0.20;;;2.60;99.90;;;;;;5108468;28;20188;-77
2024/02/17 06:36:48;;;;;;;0.30;0.30;;;2.60;99.90;;;;;;5123680;27;20256;-77
2024/02/17 06:39:14;;;;;;;0.30;0.30;;;2.70;99.90;;;;;;5123698;27;20196;-74
2024/02/17 06:41:40;;;;;;;0.30;0.27;;;2.80;99.90;;;;;;5108276;28;20172;-74
2024/02/17 06:44:05;;;;;;;0.30;0.20;;;2.90;99.90;;;;;;5107641;28;20402;-75
2024/02/17 06:46:31;;;;;;;0.30;0.20;;;3.00;99.90;;;;;;5123852;27;20180;-77
2024/02/17 06:48:57;;;;;;;0.30;0.30;;;3.10;99.90;;;;;;5106938;28;20202;-77
2024/02/17 06:51:22;;;;;;;0.30;0.30;;;3.30;99.90;;;;;;5108052;28;20172;-76
2024/02/17 06:53:49;;;;;;;0.30;0.30;;;3.40;99.90;;;;;;5123232;27;20188;-76
2024/02/17 06:56:15;;;;;;;0.82;0.82;;;3.50;99.90;;;;;;5107575;28;20548;-76
2024/02/17 06:58:41;;;;;;;0.30;0.20;;;3.60;99.90;;;;;;5107358;28;20199;-75
2024/02/17 07:01:07;;;;;;;8.73;8.32;;;3.60;99.90;;;;;;5123403;27;20686;-75
2024/02/17 07:03:33;;;;;;;0.30;0.30;;;3.80;99.90;;;;;;5123427;27;20195;-75
2024/02/17 07:05:59;;;;;;;0.30;0.20;;;3.90;99.90;;;;;;5123418;27;20187;-77
2024/02/17 07:08:24;;;;;;;0.30;0.20;;;4.10;99.90;;;;;;5105627;28;20680;-77
2024/02/17 07:10:50;;;;;;;0.30;0.20;;;4.20;99.90;;;;;;5105911;28;20703;-78
2024/02/17 07:13:15;;;;;;;0.30;0.20;;;4.40;99.90;;;;;;5104792;28;20198;-75
2024/02/17 07:15:44;;;;;;;0.30;0.20;;;4.50;99.90;;;;;;5106000;28;20669;-77
2024/02/17 07:18:10;;;;;;;0.30;0.20;;;4.70;99.90;;;;;;5106690;28;20188;-78
2024/02/17 07:20:35;;;;;;;0.30;0.30;;;4.90;99.90;;;;;;5103538;28;20233;-76
2024/02/17 07:23:01;;;;;;;0.30;0.20;;;5.10;99.90;;;;;;5103243;28;20203;-75
2024/02/17 07:25:28;;;;;;;0.30;0.20;;;5.20;99.90;;;;;;5105998;28;20175;-77
2024/02/17 07:27:57;;;;;;;0.30;0.20;;;5.40;99.90;;;;;;5106955;28;20200;-77
2024/02/17 07:30:25;;;;;;;0.30;0.20;;;5.50;99.90;;;;;;5107273;28;20164;-77
2024/02/17 07:32:51;;;;;;;0.30;0.20;;;5.70;99.90;;;;;;5106704;27;20195;-77
2024/02/17 07:35:17;;;;;;;0.30;0.30;;;5.90;99.90;;;;;;5107021;28;20195;-75
2024/02/17 07:37:43;;;;;;;0.80;0.80;;;6.10;99.90;;;;;;5106742;28;20262;-77
2024/02/17 07:40:09;;;;;;;0.30;0.30;;;6.50;99.90;;;;;;5106999;28;20168;-77
2024/02/17 07:42:36;;;;;;;0.30;0.20;;;7.00;99.90;;;;;;5104892;28;20687;-75
2024/02/17 07:45:03;;;;;;;0.40;0.40;;;7.70;99.90;;;;;;5104789;28;20191;-75
2024/02/17 07:47:28;;;;;;;0.30;0.20;;;8.10;99.90;;;;;;5104836;28;20164;-75
2024/02/17 07:49:54;;;;;;;11.30;9.93;;;8.20;99.90;;;;;;5104642;28;20648;-76
2024/02/17 07:52:20;;;;;;;0.30;0.20;;;8.40;99.90;;;;;;5105120;28;20199;-75
2024/02/17 07:54:45;;;;;;;0.30;0.20;;;8.50;99.90;;;;;;5103581;28;20426;-75
2024/02/17 07:57:11;;;;;;;0.30;0.20;;;8.60;99.90;;;;;;5106269;28;20215;-75
2024/02/17 07:59:39;;;;;;;0.60;0.60;;;8.80;99.90;;;;;;5106550;28;20199;-77
2024/02/17 08:02:05;;;;;;;1.55;1.10;;;9.00;99.90;;;;;;5106286;28;20641;-78
2024/02/17 08:04:31;;;;;;;0.30;0.30;;;9.40;99.90;;;;;;5104703;28;20203;-75
2024/02/17 08:06:56;;;;;;;5.00;2.20;;;9.80;99.90;;;;;;5104858;28;20171;-78
2024/02/17 08:09:22;;;;;;;2.53;2.43;;;10.30;99.90;;;;;;5104993;28;20668;-75
2024/02/17 08:11:50;;;;;;;1.90;1.80;;;10.70;99.90;;;;;;5105902;28;20593;-75
2024/02/17 08:14:16;;;;;;;4.18;2.25;;;11.40;99.90;;;;;;5104732;28;20295;-80
2024/02/17 08:16:42;;;;;;;0.40;0.30;;;12.10;99.90;;;;;;5105993;28;20307;-75
2024/02/17 08:19:08;;;;;;;0.40;0.40;;;12.80;99.90;;;;;;5104881;28;20286;-79
2024/02/17 08:21:33;;;;;;;3.03;2.83;;;13.60;99.90;;;;;;5103568;28;20207;-75
2024/02/17 08:23:59;;;;;;;0.63;0.63;;;14.50;99.90;;;;;;5104607;28;20240;-78
2024/02/17 08:26:26;;;;;;;0.40;0.20;;;15.20;99.90;;;;;;5104988;28;20175;-76
2024/02/17 08:28:52;;;;;;;0.77;0.77;;;15.60;99.90;;;;;;5105881;28;20428;-76
2024/02/17 08:31:18;;;;;;;0.40;0.30;;;16.20;99.20;;;;;;5104997;28;20419;-76
2024/02/17 08:33:44;;;;;;;0.40;0.33;;;17.00;98.10;;;;;;5105608;28;20522;-78
2024/02/17 08:36:10;;;;;;;0.70;0.70;;;17.60;96.10;;;;;;5105920;28;20283;-79
2024/02/17 08:38:35;;;;;;;1.00;0.97;;;18.00;94.90;;;;;;5105960;28;20203;-78
2024/02/17 08:41:04;;;;;;;0.77;0.77;;;18.40;93.50;;;;;;5105719;28;20246;-79
2024/02/17 08:43:29;;;;;;;0.40;0.30;;;18.50;93.40;;;;;;5105577;28;20225;-76
2024/02/17 08:45:56;;;;;;;0.80;0.80;;;18.60;92.60;;;;;;5105465;28;20717;-79
2024/02/17 08:48:22;;;;;;;0.40;0.30;;;18.80;92.30;;;;;;5105362;28;20656;-79
2024/02/17 08:50:48;;;;;;;0.90;0.70;;;19.20;91.60;;;;;;5104138;28;20417;-78
2024/02/17 08:53:14;;;;;;;0.50;0.50;;;19.70;91.20;;;;;;5104244;28;20980;-79
2024/02/17 08:55:40;;;;;;;0.70;0.30;;;20.20;90.20;;;;;;5104422;28;20412;-77
2024/02/17 08:58:05;;;;;;;0.50;0.50;;;20.60;88.80;;;;;;5105294;28;20500;-76
2024/02/17 09:00:35;;;;;;;2.43;1.60;;;20.60;87.10;;;;;;5105823;28;20175;-79
2024/02/17 09:03:01;;;;;;;0.60;0.60;;;20.70;86.00;;;;;;5105144;28;20184;-79
2024/02/17 09:05:26;;;;;;;0.40;0.30;;;20.10;85.10;;;;;;5105437;28;20423;-77
2024/02/17 09:07:52;;;;;;;0.40;0.30;;;19.40;86.80;;;;;;5104817;28;20188;-77
2024/02/17 09:10:18;;;;;;;0.40;0.30;;;19.20;87.30;;;;;;5103646;28;20483;-79
2024/02/17 09:12:43;;;;;;;0.80;0.80;;;19.10;87.50;;;;;;5102942;28;20501;-77
2024/02/17 09:15:10;;;;;;;0.40;0.40;;;19.40;86.80;;;;;;5105066;28;20179;-79
2024/02/17 09:17:35;;;;;;;0.50;0.50;;;19.60;86.20;;;;;;5104051;28;20219;-79
2024/02/17 09:20:04;;;;;;;0.30;0.20;;;19.70;86.00;;;;;;5105567;28;20605;-78
2024/02/17 09:22:29;;;;;;;0.40;0.30;;;19.60;86.10;;;;;;5101873;28;20513;-79
2024/02/17 09:24:56;;;;;;;1.33;1.33;;;19.60;85.60;;;;;;5093951;28;20437;-77
2024/02/17 09:27:21;;;;;;;0.53;0.53;;;19.70;85.70;;;;;;5094138;28;20183;-77
2024/02/17 09:29:47;;;;;;;0.30;0.20;;;19.80;85.90;;;;;;5095500;28;20581;-79
2024/02/17 09:32:14;;;;;;;0.40;0.33;;;20.00;85.30;;;;;;5093532;28;20763;-78
2024/02/17 09:34:40;;;;;;;3.70;1.90;;;20.30;84.50;;;;;;5103768;28;20229;-77
2024/02/17 09:37:10;;;;;;;0.50;0.50;;;20.70;83.60;;;;;;5100136;28;21070;-77
2024/02/17 09:39:39;;;;;;;0.40;0.20;;;20.90;83.20;;;;;;5104201;28;20271;-79
2024/02/17 09:42:05;;;;;;;0.40;0.30;;;21.10;83.60;;;;;;5119723;28;20799;-79
2024/02/17 09:44:32;;;;;;;0.40;0.30;;;21.40;83.00;;;;;;5103882;28;20431;-79
2024/02/17 09:46:58;;;;;;;5.40;2.43;;;21.70;82.30;;;;;;5121408;27;20424;-79
2024/02/17 09:49:25;;;;;;;0.80;0.80;;;21.70;82.20;;;;;;5122335;27;20595;-78
2024/02/17 09:51:52;;;;;;;1.17;1.07;;;21.80;80.60;;;;;;5106825;28;20499;-77
2024/02/17 09:54:21;;;;;;;1.57;1.00;;;21.30;81.30;;;;;;5122588;27;20948;-79
2024/02/17 09:56:51;;;;;;;0.67;0.67;;;20.60;82.20;;;;;;5106475;28;20464;-79
2024/02/17 09:59:16;;;;;;;0.30;0.20;;;20.30;83.60;;;;;;5105281;28;20478;-77
2024/02/17 10:01:44;;;;;;;0.30;0.30;;;20.30;83.50;;;;;;5105757;28;20404;-77
2024/02/17 10:04:10;;;;;;;0.87;0.87;;;20.40;83.30;;;;;;5105077;28;20200;-77
2024/02/17 10:06:35;;;;;;;0.30;0.20;;;20.50;82.50;;;;;;5122047;27;20981;-79
2024/02/17 10:09:02;;;;;;;0.33;0.30;;;20.70;83.00;;;;;;5106902;28;20337;-77
2024/02/17 10:11:30;;;;;;;1.70;1.60;;;20.90;82.50;;;;;;5106065;28;20592;-79
2024/02/17 10:14:03;;;;;;;3.90;2.63;;;21.00;82.30;;;;;;5105615;28;20726;-79
2024/02/17 10:16:31;;;;;;;1.53;1.43;;;21.10;81.50;;;;;;5107150;28;20795;-79
2024/02/17 10:18:59;;;;;;;0.80;0.80;;;20.90;81.60;;;;;;5106182;28;20518;-77
2024/02/17 10:21:25;;;;;;;0.40;0.20;;;20.70;81.90;;;;;;5103889;28;20407;-76
2024/02/17 10:23:51;;;;;;;0.50;0.50;;;20.40;82.40;;;;;;5104802;28;20436;-76
2024/02/17 10:26:17;;;;;;;1.27;1.27;;;20.00;83.30;;;;;;5107561;28;20182;-78
2024/02/17 10:28:56;;;;;;;2.57;2.47;;;19.80;83.00;;;;;;5108271;28;20813;-78
2024/02/17 10:31:23;;;;;;;0.30;0.20;;;19.50;84.20;;;;;;5106916;28;20431;-79
2024/02/17 10:33:52;;;;;;;1.37;1.27;;;19.30;83.90;;;;;;5106507;28;20436;-77
2024/02/17 10:36:19;;;;;;;0.30;0.20;;;18.90;84.60;;;;;;5104400;28;20472;-76
2024/02/17 10:38:45;;;;;;;0.30;0.30;;;18.50;86.10;;;;;;5104653;28;20431;-78
2024/02/17 10:41:11;;;;;;;0.30;0.20;;;18.20;86.00;;;;;;5102975;28;20521;-79
2024/02/17 10:43:41;;;;;;;0.40;0.20;;;18.00;86.30;;;;;;5102754;28;20440;-77
2024/02/17 10:46:16;;;;;;;0.40;0.30;;;17.90;87.00;;;;;;5104632;28;20422;-77
2024/02/17 10:48:54;;;;;;;0.87;0.87;;;17.90;86.10;;;;;;5102974;28;20835;-79
2024/02/17 10:51:19;;;;;;;0.30;0.20;;;17.90;87.20;;;;;;5105814;28;20414;-82
2024/02/17 10:53:48;;;;;;;0.40;0.40;;;17.70;86.50;;;;;;5107391;28;20440;-79
2024/02/17 10:56:20;;;;;;;0.30;0.30;;;17.60;86.10;;;;;;5106032;28;20214;-77
2024/02/17 10:58:47;;;;;;;0.30;0.30;;;17.40;87.30;;;;;;5105911;28;20441;-77
2024/02/17 11:01:16;;;;;;;27.13;24.63;;;17.40;87.40;;;;;;5107231;28;20497;-78
2024/02/17 11:03:44;;;;;;;0.30;0.20;;;17.60;86.60;;;;;;5106918;28;20548;-77
2024/02/17 11:06:14;;;;;;;0.40;0.40;;;17.70;86.90;;;;;;5105992;28;20427;-78
2024/02/17 11:08:39;;;;;;;0.30;0.20;;;17.80;86.90;;;;;;5105750;28;20562;-77
2024/02/17 11:11:25;;;;;;;0.37;0.30;;;17.90;86.90;;;;;;5107280;28;20459;-77
2024/02/17 11:13:52;;;;;;;0.40;0.40;;;18.00;87.00;;;;;;5107184;28;20437;-76
2024/02/17 11:16:19;;;;;;;0.50;0.50;;;17.80;86.90;;;;;;5107019;28;20490;-79
2024/02/17 11:18:48;;;;;;;0.30;0.20;;;17.70;85.30;;;;;;5106480;28;20516;-79
2024/02/17 11:21:14;;;;;;;0.30;0.20;;;17.60;85.50;;;;;;5105898;28;20424;-78
2024/02/17 11:23:41;;;;;;;1.50;1.50;;;17.40;85.90;;;;;;5106839;28;20434;-78
2024/02/17 11:26:17;;;;;;;0.30;0.30;;;17.20;86.00;;;;;;5106593;28;20178;-78
2024/02/17 11:28:42;;;;;;;0.40;0.40;;;17.10;86.70;;;;;;5106898;28;20839;-79
2024/02/17 11:31:11;;;;;;;0.40;0.20;;;17.10;87.10;;;;;;5105676;28;20417;-76
2024/02/17 11:33:37;;;;;;;0.40;0.30;;;17.20;85.90;;;;;;5106985;28;20191;-79
2024/02/17 11:36:04;;;;;;;0.30;0.20;;;17.30;87.10;;;;;;5106874;28;20401;-78
2024/02/17 11:38:31;;;;;;;0.30;0.20;;;17.40;86.50;;;;;;5106418;28;20776;-76
2024/02/17 11:41:00;;;;;;;0.83;0.60;;;17.40;86.40;;;;;;5106794;28;20411;-76
2024/02/17 11:43:33;;;;;;;0.47;0.47;;;17.30;86.70;;;;;;5122213;27;20488;-78
2024/02/17 11:46:00;;;;;;;0.40;0.20;;;17.30;85.80;;;;;;5122815;27;20417;-76
2024/02/17 11:48:28;;;;;;;2.53;2.43;;;17.30;85.40;;;;;;5106462;28;20670;-76
2024/02/17 11:51:18;;;;;;;0.30;0.20;;;17.30;85.90;;;;;;5122234;27;20417;-76
2024/02/17 11:53:48;;;;;;;0.30;0.20;;;17.30;85.80;;;;;;5106610;28;20513;-78
2024/02/17 11:56:15;;;;;;;0.30;0.20;;;17.40;86.10;;;;;;5106308;28;21013;-78
2024/02/17 11:58:41;;;;;;;0.30;0.30;;;17.50;85.90;;;;;;5104381;28;20731;-76
2024/02/17 12:01:08;;;;;;;0.30;0.20;;;17.50;86.10;;;;;;5104554;28;20701;-76
2024/02/17 12:03:34;;;;;;;0.40;0.40;;;17.70;85.10;;;;;;5105125;28;20433;-76
2024/02/17 12:06:03;;;;;;;0.30;0.20;;;17.70;84.80;;;;;;5105003;28;20415;-79
2024/02/17 12:08:29;;;;;;;0.30;0.20;;;17.60;86.10;;;;;;5119881;27;21029;-79
2024/02/17 12:10:56;;;;;;;0.30;0.30;;;17.60;86.20;;;;;;5119756;27;20502;-78
2024/02/17 12:13:23;;;;;;;0.30;0.20;;;17.60;84.80;;;;;;5103602;28;21021;-77
2024/02/17 12:15:49;;;;;;;1.37;0.80;;;17.60;84.00;;;;;;5102255;28;20440;-77
2024/02/17 12:18:18;;;;;;;0.33;0.27;;;17.70;84.70;;;;;;5101971;28;20478;-76
2024/02/17 12:20:44;;;;;;;0.50;0.50;;;17.70;85.10;;;;;;5102118;28;20445;-77
2024/02/17 12:23:10;;;;;;;0.30;0.20;;;17.70;85.70;;;;;;5107046;27;20987;-78
2024/02/17 12:25:39;;;;;;;0.30;0.20;;;17.70;86.30;;;;;;5102915;28;20225;-78
2024/02/17 12:28:09;;;;;;;0.30;0.20;;;17.60;85.10;;;;;;5089707;28;20793;-78
2024/02/17 12:30:49;;;;;;;0.30;0.20;;;17.60;84.90;;;;;;5104094;28;20667;-78
2024/02/17 12:33:20;;;;;;;0.40;0.30;;;17.60;84.40;;;;;;5106158;28;21013;-78
2024/02/17 12:35:47;;;;;;;0.30;0.20;;;17.50;84.80;;;;;;5104987;28;20404;-77
2024/02/17 12:38:17;;;;;;;0.30;0.20;;;17.70;84.70;;;;;;5103962;28;20823;-79
2024/02/17 12:40:44;;;;;;;0.30;0.20;;;17.80;84.50;;;;;;5104465;28;20827;-77
2024/02/17 12:43:20;;;;;;;0.30;0.20;;;18.00;84.60;;;;;;5103743;28;20429;-78
2024/02/17 12:45:46;;;;;;;0.60;0.60;;;18.10;84.80;;;;;;5120210;27;21176;-78
2024/02/17 12:48:11;;;;;;;0.50;0.47;;;18.20;84.80;;;;;;5119361;27;20437;-78
2024/02/17 12:50:38;;;;;;;0.40;0.40;;;18.30;82.60;;;;;;5103564;28;20422;-78
2024/02/17 12:53:21;;;;;;;0.30;0.20;;;18.10;82.90;;;;;;5119551;28;20435;-78